sensor_id;sensor_type;location;lat;lon;timestamp;P1;durP1;ratioP1;P2;durP2;ratioP2
22849;SDS011;11591;44.792;10.358;2022-12-29T00:02:04;113.88;;;37.55;;
22849;SDS011;11591;44.792;10.358;2022-12-29T00:04:30;108.75;;;38.03;;
22849;SDS011;11591;44.792;10.358;2022-12-29T00:06:56;108.30;;;35.55;;
22849;SDS011;11591;44.792;10.358;2022-12-29T00:09:22;103.43;;;37.97;;
22849;SDS011;11591;44.792;10.358;2022-12-29T00:11:47;111.25;;;37.97;;
22849;SDS011;11591;44.792;10.358;2022-12-29T00:14:15;115.95;;;38.08;;
22849;SDS011;11591;44.792;10.358;2022-12-29T00:16:59;117.88;;;38.17;;
22849;SDS011;11591;44.792;10.358;2022-12-29T00:19:25;120.53;;;39.08;;
22849;SDS011;11591;44.792;10.358;2022-12-29T00:22:23;115.05;;;38.97;;
22849;SDS011;11591;44.792;10.358;2022-12-29T00:25:07;112.10;;;38.78;;
22849;SDS011;11591;44.792;10.358;2022-12-29T00:27:53;109.15;;;35.67;;
22849;SDS011;11591;44.792;10.358;2022-12-29T00:30:38;115.80;;;38.13;;
22849;SDS011;11591;44.792;10.358;2022-12-29T00:33:25;124.82;;;39.50;;
22849;SDS011;11591;44.792;10.358;2022-12-29T00:36:15;117.53;;;37.47;;
22849;SDS011;11591;44.792;10.358;2022-12-29T00:38:51;113.13;;;38.53;;
22849;SDS011;11591;44.792;10.358;2022-12-29T00:41:39;107.28;;;38.00;;
22849;SDS011;11591;44.792;10.358;2022-12-29T00:44:23;119.40;;;39.13;;
22849;SDS011;11591;44.792;10.358;2022-12-29T00:46:49;113.40;;;39.10;;
22849;SDS011;11591;44.792;10.358;2022-12-29T00:49:15;116.03;;;41.08;;
22849;SDS011;11591;44.792;10.358;2022-12-29T00:52:04;127.82;;;39.67;;
22849;SDS011;11591;44.792;10.358;2022-12-29T00:54:32;115.50;;;38.90;;
22849;SDS011;11591;44.792;10.358;2022-12-29T00:57:00;126.93;;;41.15;;
22849;SDS011;11591;44.792;10.358;2022-12-29T00:59:26;129.00;;;41.35;;
22849;SDS011;11591;44.792;10.358;2022-12-29T01:01:53;119.53;;;40.58;;
22849;SDS011;11591;44.792;10.358;2022-12-29T01:04:20;111.50;;;38.25;;
22849;SDS011;11591;44.792;10.358;2022-12-29T01:06:47;120.45;;;40.28;;
22849;SDS011;11591;44.792;10.358;2022-12-29T01:09:14;124.80;;;38.92;;
22849;SDS011;11591;44.792;10.358;2022-12-29T01:11:59;118.72;;;41.30;;
22849;SDS011;11591;44.792;10.358;2022-12-29T01:14:25;136.15;;;43.00;;
22849;SDS011;11591;44.792;10.358;2022-12-29T01:16:51;134.02;;;43.28;;
22849;SDS011;11591;44.792;10.358;2022-12-29T01:19:17;126.68;;;42.35;;
22849;SDS011;11591;44.792;10.358;2022-12-29T01:21:44;113.63;;;39.97;;
22849;SDS011;11591;44.792;10.358;2022-12-29T01:24:11;128.23;;;40.85;;
22849;SDS011;11591;44.792;10.358;2022-12-29T01:26:37;123.45;;;42.92;;
22849;SDS011;11591;44.792;10.358;2022-12-29T01:29:03;125.85;;;42.40;;
22849;SDS011;11591;44.792;10.358;2022-12-29T01:31:29;124.20;;;40.58;;
22849;SDS011;11591;44.792;10.358;2022-12-29T01:33:54;121.90;;;40.75;;
22849;SDS011;11591;44.792;10.358;2022-12-29T01:36:20;124.47;;;42.50;;
22849;SDS011;11591;44.792;10.358;2022-12-29T01:38:47;126.68;;;42.90;;
22849;SDS011;11591;44.792;10.358;2022-12-29T01:41:13;119.43;;;42.30;;
22849;SDS011;11591;44.792;10.358;2022-12-29T01:48:45;127.28;;;41.28;;
22849;SDS011;11591;44.792;10.358;2022-12-29T01:51:13;127.15;;;43.10;;
22849;SDS011;11591;44.792;10.358;2022-12-29T01:53:40;130.82;;;41.97;;
22849;SDS011;11591;44.792;10.358;2022-12-29T01:56:08;135.93;;;42.95;;
22849;SDS011;11591;44.792;10.358;2022-12-29T01:58:38;127.03;;;42.63;;
22849;SDS011;11591;44.792;10.358;2022-12-29T02:01:06;130.00;;;42.30;;
22849;SDS011;11591;44.792;10.358;2022-12-29T02:03:34;127.93;;;40.33;;
22849;SDS011;11591;44.792;10.358;2022-12-29T02:06:04;128.57;;;42.35;;
22849;SDS011;11591;44.792;10.358;2022-12-29T02:08:33;117.82;;;40.08;;
22849;SDS011;11591;44.792;10.358;2022-12-29T02:10:59;122.00;;;41.92;;
22849;SDS011;11591;44.792;10.358;2022-12-29T02:13:26;114.20;;;40.72;;
22849;SDS011;11591;44.792;10.358;2022-12-29T02:26:34;117.00;;;40.13;;
22849;SDS011;11591;44.792;10.358;2022-12-29T02:32:17;115.70;;;40.00;;
22849;SDS011;11591;44.792;10.358;2022-12-29T02:35:01;121.43;;;40.92;;
22849;SDS011;11591;44.792;10.358;2022-12-29T02:40:25;139.77;;;41.60;;
22849;SDS011;11591;44.792;10.358;2022-12-29T02:43:06;132.68;;;43.65;;
22849;SDS011;11591;44.792;10.358;2022-12-29T02:45:55;125.65;;;41.42;;
22849;SDS011;11591;44.792;10.358;2022-12-29T02:51:20;127.60;;;42.92;;
22849;SDS011;11591;44.792;10.358;2022-12-29T02:53:52;137.35;;;43.63;;
22849;SDS011;11591;44.792;10.358;2022-12-29T02:56:38;124.70;;;41.58;;
22849;SDS011;11591;44.792;10.358;2022-12-29T02:59:04;133.30;;;43.15;;
22849;SDS011;11591;44.792;10.358;2022-12-29T03:24:17;126.35;;;42.35;;
22849;SDS011;11591;44.792;10.358;2022-12-29T03:26:46;141.00;;;45.75;;
22849;SDS011;11591;44.792;10.358;2022-12-29T03:29:15;130.68;;;43.00;;
22849;SDS011;11591;44.792;10.358;2022-12-29T03:31:44;128.77;;;44.03;;
22849;SDS011;11591;44.792;10.358;2022-12-29T03:34:12;138.10;;;44.33;;
22849;SDS011;11591;44.792;10.358;2022-12-29T03:36:46;135.25;;;44.47;;
22849;SDS011;11591;44.792;10.358;2022-12-29T03:39:17;127.38;;;42.88;;
22849;SDS011;11591;44.792;10.358;2022-12-29T03:41:46;120.10;;;42.28;;
22849;SDS011;11591;44.792;10.358;2022-12-29T03:44:18;118.40;;;41.53;;
22849;SDS011;11591;44.792;10.358;2022-12-29T03:46:44;123.85;;;43.58;;
22849;SDS011;11591;44.792;10.358;2022-12-29T03:49:10;124.45;;;43.63;;
22849;SDS011;11591;44.792;10.358;2022-12-29T03:51:38;136.07;;;43.47;;
22849;SDS011;11591;44.792;10.358;2022-12-29T03:54:04;126.07;;;42.90;;
22849;SDS011;11591;44.792;10.358;2022-12-29T03:56:31;122.80;;;41.92;;
22849;SDS011;11591;44.792;10.358;2022-12-29T03:58:57;123.40;;;41.80;;
22849;SDS011;11591;44.792;10.358;2022-12-29T04:01:29;129.95;;;44.00;;
22849;SDS011;11591;44.792;10.358;2022-12-29T04:03:55;124.63;;;41.58;;
22849;SDS011;11591;44.792;10.358;2022-12-29T04:06:21;129.32;;;44.95;;
22849;SDS011;11591;44.792;10.358;2022-12-29T04:08:52;133.23;;;43.80;;
22849;SDS011;11591;44.792;10.358;2022-12-29T04:11:19;121.50;;;44.03;;
22849;SDS011;11591;44.792;10.358;2022-12-29T04:13:46;132.27;;;43.38;;
22849;SDS011;11591;44.792;10.358;2022-12-29T04:16:15;126.88;;;42.17;;
22849;SDS011;11591;44.792;10.358;2022-12-29T04:18:41;126.55;;;42.80;;
22849;SDS011;11591;44.792;10.358;2022-12-29T04:21:07;122.88;;;43.60;;
22849;SDS011;11591;44.792;10.358;2022-12-29T04:23:37;130.93;;;43.55;;
22849;SDS011;11591;44.792;10.358;2022-12-29T04:26:06;128.77;;;42.55;;
22849;SDS011;11591;44.792;10.358;2022-12-29T04:28:39;135.95;;;43.72;;
22849;SDS011;11591;44.792;10.358;2022-12-29T04:31:16;131.02;;;42.05;;
22849;SDS011;11591;44.792;10.358;2022-12-29T04:33:44;117.47;;;41.35;;
22849;SDS011;11591;44.792;10.358;2022-12-29T04:36:09;124.53;;;41.75;;
22849;SDS011;11591;44.792;10.358;2022-12-29T04:38:36;123.00;;;42.13;;
22849;SDS011;11591;44.792;10.358;2022-12-29T04:41:03;136.23;;;42.92;;
22849;SDS011;11591;44.792;10.358;2022-12-29T04:43:30;117.88;;;41.00;;
22849;SDS011;11591;44.792;10.358;2022-12-29T04:46:19;135.85;;;42.65;;
22849;SDS011;11591;44.792;10.358;2022-12-29T04:48:59;123.55;;;40.78;;
22849;SDS011;11591;44.792;10.358;2022-12-29T04:51:47;130.50;;;40.97;;
22849;SDS011;11591;44.792;10.358;2022-12-29T04:54:14;134.77;;;43.55;;
22849;SDS011;11591;44.792;10.358;2022-12-29T04:56:43;127.30;;;42.17;;
22849;SDS011;11591;44.792;10.358;2022-12-29T04:59:10;133.23;;;42.45;;
22849;SDS011;11591;44.792;10.358;2022-12-29T05:01:36;130.38;;;41.85;;
22849;SDS011;11591;44.792;10.358;2022-12-29T05:04:03;137.40;;;41.20;;
22849;SDS011;11591;44.792;10.358;2022-12-29T05:06:29;130.52;;;40.63;;
22849;SDS011;11591;44.792;10.358;2022-12-29T05:08:55;138.27;;;41.67;;
22849;SDS011;11591;44.792;10.358;2022-12-29T05:11:20;149.52;;;42.78;;
22849;SDS011;11591;44.792;10.358;2022-12-29T05:13:48;150.18;;;41.70;;
22849;SDS011;11591;44.792;10.358;2022-12-29T05:16:16;144.60;;;43.08;;
22849;SDS011;11591;44.792;10.358;2022-12-29T05:18:41;141.20;;;42.75;;
22849;SDS011;11591;44.792;10.358;2022-12-29T05:21:07;126.22;;;40.15;;
22849;SDS011;11591;44.792;10.358;2022-12-29T05:23:33;135.60;;;41.17;;
22849;SDS011;11591;44.792;10.358;2022-12-29T05:26:03;131.70;;;41.05;;
22849;SDS011;11591;44.792;10.358;2022-12-29T05:28:44;130.25;;;41.17;;
22849;SDS011;11591;44.792;10.358;2022-12-29T05:31:17;137.30;;;41.75;;
22849;SDS011;11591;44.792;10.358;2022-12-29T05:33:42;137.55;;;41.08;;
22849;SDS011;11591;44.792;10.358;2022-12-29T05:36:08;136.90;;;40.67;;
22849;SDS011;11591;44.792;10.358;2022-12-29T05:38:39;129.80;;;41.92;;
22849;SDS011;11591;44.792;10.358;2022-12-29T05:41:05;127.50;;;39.42;;
22849;SDS011;11591;44.792;10.358;2022-12-29T05:43:57;129.70;;;40.85;;
22849;SDS011;11591;44.792;10.358;2022-12-29T05:46:44;117.15;;;39.85;;
22849;SDS011;11591;44.792;10.358;2022-12-29T05:49:16;125.00;;;40.63;;
22849;SDS011;11591;44.792;10.358;2022-12-29T05:52:06;131.93;;;39.38;;
22849;SDS011;11591;44.792;10.358;2022-12-29T05:54:33;127.63;;;40.42;;
22849;SDS011;11591;44.792;10.358;2022-12-29T05:57:00;122.68;;;40.20;;
22849;SDS011;11591;44.792;10.358;2022-12-29T05:59:26;144.07;;;41.70;;
22849;SDS011;11591;44.792;10.358;2022-12-29T06:01:53;129.20;;;40.70;;
22849;SDS011;11591;44.792;10.358;2022-12-29T06:04:19;125.32;;;39.08;;
22849;SDS011;11591;44.792;10.358;2022-12-29T06:06:46;128.90;;;40.50;;
22849;SDS011;11591;44.792;10.358;2022-12-29T06:09:20;125.10;;;38.97;;
22849;SDS011;11591;44.792;10.358;2022-12-29T06:11:45;126.63;;;40.35;;
22849;SDS011;11591;44.792;10.358;2022-12-29T06:14:11;132.98;;;39.88;;
22849;SDS011;11591;44.792;10.358;2022-12-29T06:16:37;130.55;;;40.33;;
22849;SDS011;11591;44.792;10.358;2022-12-29T06:19:07;132.43;;;38.72;;
22849;SDS011;11591;44.792;10.358;2022-12-29T06:21:34;128.85;;;40.28;;
22849;SDS011;11591;44.792;10.358;2022-12-29T06:24:00;129.45;;;41.20;;
22849;SDS011;11591;44.792;10.358;2022-12-29T06:26:26;131.20;;;41.40;;
22849;SDS011;11591;44.792;10.358;2022-12-29T06:28:52;128.30;;;39.83;;
22849;SDS011;11591;44.792;10.358;2022-12-29T06:31:18;130.45;;;41.30;;
22849;SDS011;11591;44.792;10.358;2022-12-29T06:33:44;135.55;;;41.15;;
22849;SDS011;11591;44.792;10.358;2022-12-29T06:36:10;124.82;;;39.88;;
22849;SDS011;11591;44.792;10.358;2022-12-29T06:38:36;123.35;;;38.75;;
22849;SDS011;11591;44.792;10.358;2022-12-29T06:41:01;124.45;;;39.28;;
22849;SDS011;11591;44.792;10.358;2022-12-29T06:43:56;128.38;;;41.13;;
22849;SDS011;11591;44.792;10.358;2022-12-29T06:46:40;131.55;;;41.90;;
22849;SDS011;11591;44.792;10.358;2022-12-29T06:49:06;126.85;;;40.92;;
22849;SDS011;11591;44.792;10.358;2022-12-29T06:51:31;117.95;;;40.03;;
22849;SDS011;11591;44.792;10.358;2022-12-29T06:53:57;133.48;;;40.25;;
22849;SDS011;11591;44.792;10.358;2022-12-29T06:56:23;131.77;;;41.00;;
22849;SDS011;11591;44.792;10.358;2022-12-29T06:58:48;135.05;;;42.25;;
22849;SDS011;11591;44.792;10.358;2022-12-29T07:01:14;128.68;;;40.25;;
22849;SDS011;11591;44.792;10.358;2022-12-29T07:03:43;131.90;;;40.75;;
22849;SDS011;11591;44.792;10.358;2022-12-29T07:06:09;135.35;;;41.03;;
22849;SDS011;11591;44.792;10.358;2022-12-29T07:08:35;129.00;;;41.45;;
22849;SDS011;11591;44.792;10.358;2022-12-29T07:11:00;131.80;;;39.00;;
22849;SDS011;11591;44.792;10.358;2022-12-29T07:13:26;139.52;;;41.60;;
22849;SDS011;11591;44.792;10.358;2022-12-29T07:15:52;130.88;;;41.33;;
22849;SDS011;11591;44.792;10.358;2022-12-29T07:18:17;134.77;;;42.08;;
22849;SDS011;11591;44.792;10.358;2022-12-29T07:20:43;128.13;;;41.92;;
22849;SDS011;11591;44.792;10.358;2022-12-29T07:23:10;137.75;;;40.35;;
22849;SDS011;11591;44.792;10.358;2022-12-29T07:25:36;140.48;;;41.10;;
22849;SDS011;11591;44.792;10.358;2022-12-29T07:28:02;136.38;;;40.47;;
22849;SDS011;11591;44.792;10.358;2022-12-29T07:30:28;140.80;;;42.63;;
22849;SDS011;11591;44.792;10.358;2022-12-29T07:32:54;149.23;;;42.88;;
22849;SDS011;11591;44.792;10.358;2022-12-29T07:35:20;138.95;;;40.78;;
22849;SDS011;11591;44.792;10.358;2022-12-29T07:37:46;134.90;;;41.53;;
22849;SDS011;11591;44.792;10.358;2022-12-29T07:40:12;131.93;;;40.58;;
22849;SDS011;11591;44.792;10.358;2022-12-29T07:42:38;130.32;;;39.47;;
22849;SDS011;11591;44.792;10.358;2022-12-29T07:45:07;130.30;;;42.00;;
22849;SDS011;11591;44.792;10.358;2022-12-29T07:47:52;134.05;;;41.72;;
22849;SDS011;11591;44.792;10.358;2022-12-29T07:50:18;134.45;;;41.83;;
22849;SDS011;11591;44.792;10.358;2022-12-29T07:52:44;134.02;;;39.92;;
22849;SDS011;11591;44.792;10.358;2022-12-29T07:55:12;126.45;;;38.78;;
22849;SDS011;11591;44.792;10.358;2022-12-29T07:57:37;128.35;;;40.65;;
22849;SDS011;11591;44.792;10.358;2022-12-29T08:00:03;122.32;;;39.22;;
22849;SDS011;11591;44.792;10.358;2022-12-29T08:02:37;117.95;;;38.38;;
22849;SDS011;11591;44.792;10.358;2022-12-29T08:05:03;126.65;;;40.75;;
22849;SDS011;11591;44.792;10.358;2022-12-29T08:07:29;121.53;;;39.45;;
22849;SDS011;11591;44.792;10.358;2022-12-29T08:09:54;127.18;;;39.22;;
22849;SDS011;11591;44.792;10.358;2022-12-29T08:12:20;122.47;;;38.42;;
22849;SDS011;11591;44.792;10.358;2022-12-29T08:14:46;119.65;;;37.63;;
22849;SDS011;11591;44.792;10.358;2022-12-29T08:17:12;114.75;;;36.83;;
22849;SDS011;11591;44.792;10.358;2022-12-29T08:19:37;111.57;;;38.05;;
22849;SDS011;11591;44.792;10.358;2022-12-29T08:22:03;110.45;;;36.97;;
22849;SDS011;11591;44.792;10.358;2022-12-29T08:24:29;123.68;;;39.17;;
22849;SDS011;11591;44.792;10.358;2022-12-29T08:26:55;111.00;;;35.60;;
22849;SDS011;11591;44.792;10.358;2022-12-29T08:29:20;120.95;;;39.45;;
22849;SDS011;11591;44.792;10.358;2022-12-29T08:31:47;113.13;;;38.05;;
22849;SDS011;11591;44.792;10.358;2022-12-29T08:34:13;127.05;;;40.53;;
22849;SDS011;11591;44.792;10.358;2022-12-29T08:36:38;122.65;;;39.03;;
22849;SDS011;11591;44.792;10.358;2022-12-29T08:39:04;119.65;;;40.08;;
22849;SDS011;11591;44.792;10.358;2022-12-29T08:41:30;136.98;;;41.40;;
22849;SDS011;11591;44.792;10.358;2022-12-29T08:43:56;123.88;;;41.22;;
22849;SDS011;11591;44.792;10.358;2022-12-29T08:46:22;129.93;;;39.83;;
22849;SDS011;11591;44.792;10.358;2022-12-29T08:48:47;123.35;;;38.22;;
22849;SDS011;11591;44.792;10.358;2022-12-29T08:51:13;133.95;;;39.83;;
22849;SDS011;11591;44.792;10.358;2022-12-29T08:53:39;136.50;;;40.05;;
22849;SDS011;11591;44.792;10.358;2022-12-29T08:56:05;127.45;;;39.22;;
22849;SDS011;11591;44.792;10.358;2022-12-29T08:58:42;125.03;;;40.17;;
22849;SDS011;11591;44.792;10.358;2022-12-29T09:01:08;137.68;;;41.15;;
22849;SDS011;11591;44.792;10.358;2022-12-29T09:03:34;147.43;;;41.63;;
22849;SDS011;11591;44.792;10.358;2022-12-29T09:06:00;142.43;;;41.08;;
22849;SDS011;11591;44.792;10.358;2022-12-29T09:08:26;139.20;;;41.38;;
22849;SDS011;11591;44.792;10.358;2022-12-29T09:10:52;145.05;;;41.65;;
22849;SDS011;11591;44.792;10.358;2022-12-29T09:13:18;143.95;;;41.50;;
22849;SDS011;11591;44.792;10.358;2022-12-29T09:15:44;137.93;;;41.03;;
22849;SDS011;11591;44.792;10.358;2022-12-29T09:18:10;136.00;;;41.40;;
22849;SDS011;11591;44.792;10.358;2022-12-29T09:20:36;136.27;;;41.00;;
22849;SDS011;11591;44.792;10.358;2022-12-29T09:23:02;142.02;;;43.30;;
22849;SDS011;11591;44.792;10.358;2022-12-29T09:25:31;138.98;;;42.47;;
22849;SDS011;11591;44.792;10.358;2022-12-29T09:27:56;146.05;;;42.53;;
22849;SDS011;11591;44.792;10.358;2022-12-29T09:30:23;152.63;;;43.67;;
22849;SDS011;11591;44.792;10.358;2022-12-29T09:32:49;148.80;;;44.13;;
22849;SDS011;11591;44.792;10.358;2022-12-29T09:35:19;144.82;;;42.85;;
22849;SDS011;11591;44.792;10.358;2022-12-29T09:37:47;144.35;;;45.55;;
22849;SDS011;11591;44.792;10.358;2022-12-29T09:40:29;143.63;;;44.65;;
22849;SDS011;11591;44.792;10.358;2022-12-29T09:43:03;141.40;;;44.80;;
22849;SDS011;11591;44.792;10.358;2022-12-29T09:45:58;142.55;;;43.92;;
22849;SDS011;11591;44.792;10.358;2022-12-29T09:48:34;142.25;;;41.67;;
22849;SDS011;11591;44.792;10.358;2022-12-29T09:51:03;142.60;;;41.85;;
22849;SDS011;11591;44.792;10.358;2022-12-29T09:53:36;138.65;;;42.92;;
22849;SDS011;11591;44.792;10.358;2022-12-29T09:56:05;144.48;;;42.97;;
22849;SDS011;11591;44.792;10.358;2022-12-29T09:58:54;133.75;;;44.42;;
22849;SDS011;11591;44.792;10.358;2022-12-29T10:04:01;129.45;;;41.60;;
22849;SDS011;11591;44.792;10.358;2022-12-29T10:06:45;142.23;;;40.60;;
22849;SDS011;11591;44.792;10.358;2022-12-29T10:25:42;133.45;;;41.03;;
22849;SDS011;11591;44.792;10.358;2022-12-29T10:28:22;126.15;;;39.47;;
22849;SDS011;11591;44.792;10.358;2022-12-29T10:31:00;138.65;;;42.10;;
22849;SDS011;11591;44.792;10.358;2022-12-29T10:33:34;147.57;;;44.08;;
22849;SDS011;11591;44.792;10.358;2022-12-29T10:36:04;135.88;;;42.67;;
22849;SDS011;11591;44.792;10.358;2022-12-29T10:38:45;134.95;;;42.22;;
22849;SDS011;11591;44.792;10.358;2022-12-29T10:43:56;139.00;;;43.17;;
22849;SDS011;11591;44.792;10.358;2022-12-29T10:46:25;141.27;;;43.30;;
22849;SDS011;11591;44.792;10.358;2022-12-29T10:48:57;129.48;;;41.78;;
22849;SDS011;11591;44.792;10.358;2022-12-29T10:51:27;149.77;;;45.05;;
22849;SDS011;11591;44.792;10.358;2022-12-29T10:54:02;139.57;;;42.40;;
22849;SDS011;11591;44.792;10.358;2022-12-29T10:56:36;139.07;;;41.80;;
22849;SDS011;11591;44.792;10.358;2022-12-29T11:01:45;126.63;;;42.33;;
22849;SDS011;11591;44.792;10.358;2022-12-29T11:04:38;132.95;;;41.50;;
22849;SDS011;11591;44.792;10.358;2022-12-29T11:07:05;142.43;;;42.78;;
22849;SDS011;11591;44.792;10.358;2022-12-29T11:09:33;146.10;;;43.50;;
22849;SDS011;11591;44.792;10.358;2022-12-29T11:12:44;132.07;;;43.67;;
22849;SDS011;11591;44.792;10.358;2022-12-29T11:15:11;136.27;;;41.50;;
22849;SDS011;11591;44.792;10.358;2022-12-29T11:17:47;121.13;;;40.58;;
22849;SDS011;11591;44.792;10.358;2022-12-29T11:23:03;128.95;;;40.65;;
22849;SDS011;11591;44.792;10.358;2022-12-29T11:28:39;138.82;;;41.72;;
22849;SDS011;11591;44.792;10.358;2022-12-29T11:31:07;133.93;;;43.50;;
22849;SDS011;11591;44.792;10.358;2022-12-29T11:33:34;142.23;;;42.97;;
22849;SDS011;11591;44.792;10.358;2022-12-29T11:36:04;146.65;;;43.55;;
22849;SDS011;11591;44.792;10.358;2022-12-29T11:38:34;146.18;;;42.78;;
22849;SDS011;11591;44.792;10.358;2022-12-29T11:41:02;135.35;;;42.42;;
22849;SDS011;11591;44.792;10.358;2022-12-29T11:43:34;126.93;;;39.58;;
22849;SDS011;11591;44.792;10.358;2022-12-29T11:46:03;131.82;;;39.42;;
22849;SDS011;11591;44.792;10.358;2022-12-29T11:48:37;136.07;;;40.67;;
22849;SDS011;11591;44.792;10.358;2022-12-29T11:51:05;130.10;;;41.33;;
22849;SDS011;11591;44.792;10.358;2022-12-29T11:53:49;146.43;;;41.17;;
22849;SDS011;11591;44.792;10.358;2022-12-29T11:56:19;137.45;;;40.30;;
22849;SDS011;11591;44.792;10.358;2022-12-29T11:58:55;137.13;;;40.72;;
22849;SDS011;11591;44.792;10.358;2022-12-29T12:01:39;131.55;;;40.22;;
22849;SDS011;11591;44.792;10.358;2022-12-29T12:04:10;118.35;;;39.35;;
22849;SDS011;11591;44.792;10.358;2022-12-29T12:06:49;138.75;;;41.30;;
22849;SDS011;11591;44.792;10.358;2022-12-29T12:09:50;133.85;;;38.40;;
22849;SDS011;11591;44.792;10.358;2022-12-29T12:12:23;119.45;;;38.88;;
22849;SDS011;11591;44.792;10.358;2022-12-29T12:14:56;120.75;;;36.17;;
22849;SDS011;11591;44.792;10.358;2022-12-29T12:17:48;111.18;;;33.95;;
22849;SDS011;11591;44.792;10.358;2022-12-29T12:25:55;135.55;;;37.90;;
22849;SDS011;11591;44.792;10.358;2022-12-29T12:28:45;128.25;;;40.72;;
22849;SDS011;11591;44.792;10.358;2022-12-29T12:31:54;125.70;;;38.55;;
22849;SDS011;11591;44.792;10.358;2022-12-29T12:34:28;135.07;;;40.20;;
22849;SDS011;11591;44.792;10.358;2022-12-29T12:40:03;126.05;;;41.20;;
22849;SDS011;11591;44.792;10.358;2022-12-29T12:50:53;120.07;;;40.55;;
22849;SDS011;11591;44.792;10.358;2022-12-29T12:53:45;133.48;;;40.58;;
22849;SDS011;11591;44.792;10.358;2022-12-29T12:59:06;125.68;;;40.30;;
22849;SDS011;11591;44.792;10.358;2022-12-29T13:05:02;111.38;;;36.08;;
22849;SDS011;11591;44.792;10.358;2022-12-29T13:10:36;114.40;;;35.90;;
22849;SDS011;11591;44.792;10.358;2022-12-29T13:15:56;145.60;;;44.88;;
22849;SDS011;11591;44.792;10.358;2022-12-29T13:30:33;139.88;;;42.67;;
22849;SDS011;11591;44.792;10.358;2022-12-29T13:36:03;114.18;;;37.72;;
22849;SDS011;11591;44.792;10.358;2022-12-29T13:38:46;114.30;;;35.10;;
22849;SDS011;11591;44.792;10.358;2022-12-29T13:41:20;107.90;;;36.53;;
22849;SDS011;11591;44.792;10.358;2022-12-29T13:44:04;107.20;;;34.13;;
22849;SDS011;11591;44.792;10.358;2022-12-29T13:46:39;108.55;;;34.22;;
22849;SDS011;11591;44.792;10.358;2022-12-29T13:49:10;116.88;;;34.95;;
22849;SDS011;11591;44.792;10.358;2022-12-29T13:51:48;117.18;;;37.20;;
22849;SDS011;11591;44.792;10.358;2022-12-29T13:54:27;104.88;;;34.15;;
22849;SDS011;11591;44.792;10.358;2022-12-29T13:57:02;111.30;;;35.05;;
22849;SDS011;11591;44.792;10.358;2022-12-29T14:07:47;110.20;;;34.72;;
22849;SDS011;11591;44.792;10.358;2022-12-29T14:15:56;109.78;;;34.78;;
22849;SDS011;11591;44.792;10.358;2022-12-29T14:18:24;106.20;;;35.08;;
22849;SDS011;11591;44.792;10.358;2022-12-29T14:21:34;109.80;;;36.72;;
22849;SDS011;11591;44.792;10.358;2022-12-29T14:23:42;99.57;;;34.53;;
22849;SDS011;11591;44.792;10.358;2022-12-29T14:28:38;124.07;;;36.03;;
22849;SDS011;11591;44.792;10.358;2022-12-29T14:33:40;114.97;;;36.75;;
22849;SDS011;11591;44.792;10.358;2022-12-29T14:36:29;110.55;;;36.00;;
22849;SDS011;11591;44.792;10.358;2022-12-29T14:38:58;110.65;;;35.88;;
22849;SDS011;11591;44.792;10.358;2022-12-29T14:43:54;102.80;;;35.45;;
22849;SDS011;11591;44.792;10.358;2022-12-29T14:46:41;107.75;;;35.70;;
22849;SDS011;11591;44.792;10.358;2022-12-29T14:49:26;104.53;;;34.03;;
22849;SDS011;11591;44.792;10.358;2022-12-29T14:54:50;93.07;;;32.05;;
22849;SDS011;11591;44.792;10.358;2022-12-29T14:57:35;105.65;;;33.72;;
22849;SDS011;11591;44.792;10.358;2022-12-29T15:03:21;95.55;;;31.90;;
22849;SDS011;11591;44.792;10.358;2022-12-29T15:05:58;111.57;;;34.70;;
22849;SDS011;11591;44.792;10.358;2022-12-29T15:08:37;99.28;;;35.00;;
22849;SDS011;11591;44.792;10.358;2022-12-29T15:11:11;106.72;;;34.15;;
22849;SDS011;11591;44.792;10.358;2022-12-29T15:13:43;94.50;;;32.17;;
22849;SDS011;11591;44.792;10.358;2022-12-29T15:16:20;98.30;;;34.17;;
22849;SDS011;11591;44.792;10.358;2022-12-29T15:18:57;95.63;;;31.63;;
22849;SDS011;11591;44.792;10.358;2022-12-29T15:21:24;98.22;;;32.33;;
22849;SDS011;11591;44.792;10.358;2022-12-29T15:23:58;102.68;;;33.78;;
22849;SDS011;11591;44.792;10.358;2022-12-29T15:26:38;102.05;;;32.45;;
22849;SDS011;11591;44.792;10.358;2022-12-29T15:29:05;100.80;;;33.65;;
22849;SDS011;11591;44.792;10.358;2022-12-29T15:32:23;96.78;;;31.98;;
22849;SDS011;11591;44.792;10.358;2022-12-29T15:34:52;127.53;;;35.53;;
22849;SDS011;11591;44.792;10.358;2022-12-29T15:37:40;125.13;;;35.92;;
22849;SDS011;11591;44.792;10.358;2022-12-29T15:40:19;117.65;;;35.13;;
22849;SDS011;11591;44.792;10.358;2022-12-29T15:45:35;101.47;;;32.35;;
22849;SDS011;11591;44.792;10.358;2022-12-29T15:48:02;105.30;;;32.65;;
22849;SDS011;11591;44.792;10.358;2022-12-29T15:50:30;92.85;;;31.15;;
22849;SDS011;11591;44.792;10.358;2022-12-29T15:52:58;100.15;;;32.33;;
22849;SDS011;11591;44.792;10.358;2022-12-29T15:55:32;91.85;;;31.10;;
22849;SDS011;11591;44.792;10.358;2022-12-29T15:58:01;102.20;;;32.50;;
22849;SDS011;11591;44.792;10.358;2022-12-29T16:00:30;93.45;;;31.38;;
22849;SDS011;11591;44.792;10.358;2022-12-29T16:03:03;109.68;;;33.92;;
22849;SDS011;11591;44.792;10.358;2022-12-29T16:05:31;114.72;;;37.40;;
22849;SDS011;11591;44.792;10.358;2022-12-29T16:08:02;114.82;;;35.60;;
22849;SDS011;11591;44.792;10.358;2022-12-29T16:10:33;104.15;;;33.78;;
22849;SDS011;11591;44.792;10.358;2022-12-29T16:15:48;94.93;;;32.60;;
22849;SDS011;11591;44.792;10.358;2022-12-29T16:18:23;103.95;;;32.40;;
22849;SDS011;11591;44.792;10.358;2022-12-29T16:20:52;102.30;;;34.30;;
22849;SDS011;11591;44.792;10.358;2022-12-29T16:23:24;102.05;;;33.17;;
22849;SDS011;11591;44.792;10.358;2022-12-29T16:25:52;97.05;;;33.92;;
22849;SDS011;11591;44.792;10.358;2022-12-29T16:28:20;104.63;;;32.63;;
22849;SDS011;11591;44.792;10.358;2022-12-29T16:30:58;107.28;;;33.95;;
22849;SDS011;11591;44.792;10.358;2022-12-29T16:36:31;106.28;;;35.13;;
22849;SDS011;11591;44.792;10.358;2022-12-29T16:39:41;101.50;;;33.45;;
22849;SDS011;11591;44.792;10.358;2022-12-29T16:41:56;101.95;;;33.25;;
22849;SDS011;11591;44.792;10.358;2022-12-29T16:44:23;110.63;;;34.47;;
22849;SDS011;11591;44.792;10.358;2022-12-29T16:46:57;114.57;;;35.65;;
22849;SDS011;11591;44.792;10.358;2022-12-29T16:49:35;114.40;;;36.60;;
22849;SDS011;11591;44.792;10.358;2022-12-29T16:52:20;109.70;;;34.90;;
22849;SDS011;11591;44.792;10.358;2022-12-29T16:54:48;105.60;;;36.42;;
22849;SDS011;11591;44.792;10.358;2022-12-29T16:57:21;108.95;;;35.45;;
22849;SDS011;11591;44.792;10.358;2022-12-29T16:59:48;123.22;;;39.60;;